sensor_id;sensor_type;location;lat;lon;timestamp;pressure;altitude;pressure_sealevel;temperature;humidity
59987;BME280;46181;51.498;5.392;2023-01-28T00:02:06;102811.1;;;8.52;53.48047
59987;BME280;46181;51.498;5.392;2023-01-28T00:06:36;102803.5;;;8.56;53.51855
59987;BME280;46181;51.498;5.392;2023-01-28T00:11:06;102803.9;;;8.56;53.43945
59987;BME280;46181;51.498;5.392;2023-01-28T00:15:36;102811.3;;;8.56;53.55273
59987;BME280;46181;51.498;5.392;2023-01-28T00:20:06;102812.2;;;8.59;53.61328
59987;BME280;46181;51.498;5.392;2023-01-28T00:24:36;102817.6;;;8.59;53.69238
59987;BME280;46181;51.498;5.392;2023-01-28T00:29:06;102817.6;;;8.62;53.7168
59987;BME280;46181;51.498;5.392;2023-01-28T00:33:36;102820.1;;;8.63;53.86523
59987;BME280;46181;51.498;5.392;2023-01-28T00:38:06;102827.2;;;8.65;53.78809
59987;BME280;46181;51.498;5.392;2023-01-28T00:42:36;102826.3;;;8.56;53.70898
59987;BME280;46181;51.498;5.392;2023-01-28T00:47:06;102834.8;;;8.53;53.70508
59987;BME280;46181;51.498;5.392;2023-01-28T00:51:36;102832.3;;;8.5;53.84766
59987;BME280;46181;51.498;5.392;2023-01-28T00:56:07;102832.1;;;8.42;53.6582
59987;BME280;46181;51.498;5.392;2023-01-28T01:00:36;102831.2;;;8.34;53.80566
59987;BME280;46181;51.498;5.392;2023-01-28T01:05:06;102834;;;8.32;53.75879
59987;BME280;46181;51.498;5.392;2023-01-28T01:09:36;102838.5;;;8.3;53.82324
59987;BME280;46181;51.498;5.392;2023-01-28T01:14:08;102834.3;;;8.3;53.78906
59987;BME280;46181;51.498;5.392;2023-01-28T01:18:36;102834;;;8.29;53.92285
59987;BME280;46181;51.498;5.392;2023-01-28T01:23:06;102834;;;8.27;53.86426
59987;BME280;46181;51.498;5.392;2023-01-28T01:27:36;102840.9;;;8.26;53.7168
59987;BME280;46181;51.498;5.392;2023-01-28T01:32:06;102829.5;;;8.25;53.86133
59987;BME280;46181;51.498;5.392;2023-01-28T01:36:36;102829;;;8.28;53.8877
59987;BME280;46181;51.498;5.392;2023-01-28T01:41:08;102823.7;;;8.25;53.87305
59987;BME280;46181;51.498;5.392;2023-01-28T01:45:37;102828.9;;;8.28;53.79785
59987;BME280;46181;51.498;5.392;2023-01-28T01:50:08;102834.1;;;8.3;53.94629
59987;BME280;46181;51.498;5.392;2023-01-28T01:54:39;102831.8;;;8.28;53.93262
59987;BME280;46181;51.498;5.392;2023-01-28T01:59:06;102839.5;;;8.31;53.73633
59987;BME280;46181;51.498;5.392;2023-01-28T02:03:40;102831.7;;;8.25;53.82813
59987;BME280;46181;51.498;5.392;2023-01-28T02:08:06;102840.2;;;8.26;53.59375
59987;BME280;46181;51.498;5.392;2023-01-28T02:12:38;102838;;;8.25;53.68262
59987;BME280;46181;51.498;5.392;2023-01-28T02:17:06;102843.9;;;8.2;53.40625
59987;BME280;46181;51.498;5.392;2023-01-28T02:26:22;102840.2;;;8.05;53.5127
59987;BME280;46181;51.498;5.392;2023-01-28T02:30:39;102840.9;;;8.1;53.34961
59987;BME280;46181;51.498;5.392;2023-01-28T02:35:10;102837;;;8.13;53.4873
59987;BME280;46181;51.498;5.392;2023-01-28T02:39:39;102837.3;;;8.15;53.44434
59987;BME280;46181;51.498;5.392;2023-01-28T02:44:06;102837;;;8.16;53.43555
59987;BME280;46181;51.498;5.392;2023-01-28T02:48:36;102829.8;;;8.09;53.02344
59987;BME280;46181;51.498;5.392;2023-01-28T02:53:16;102838.1;;;7.97;53.12109
59987;BME280;46181;51.498;5.392;2023-01-28T02:57:42;102844.2;;;8.01;53.36035
59987;BME280;46181;51.498;5.392;2023-01-28T03:02:11;102847.8;;;8;53.16895
59987;BME280;46181;51.498;5.392;2023-01-28T03:06:39;102851.7;;;7.94;52.99414
59987;BME280;46181;51.498;5.392;2023-01-28T03:11:06;102851.6;;;7.93;53.20605
59987;BME280;46181;51.498;5.392;2023-01-28T03:15:40;102852.4;;;7.94;53.35156
59987;BME280;46181;51.498;5.392;2023-01-28T03:20:07;102844.5;;;7.95;53.35449
59987;BME280;46181;51.498;5.392;2023-01-28T03:24:40;102852.6;;;7.82;52.77832
59987;BME280;46181;51.498;5.392;2023-01-28T03:29:08;102852.3;;;7.85;52.9707
59987;BME280;46181;51.498;5.392;2023-01-28T03:33:37;102850.3;;;7.83;53.00391
59987;BME280;46181;51.498;5.392;2023-01-28T03:38:06;102856.9;;;7.86;52.93945
59987;BME280;46181;51.498;5.392;2023-01-28T03:42:36;102850.6;;;7.9;52.95508
59987;BME280;46181;51.498;5.392;2023-01-28T03:47:06;102857.8;;;7.89;52.18066
59987;BME280;46181;51.498;5.392;2023-01-28T03:51:36;102851.4;;;7.88;52.35938
59987;BME280;46181;51.498;5.392;2023-01-28T03:56:06;102850.7;;;7.89;52.21387
59987;BME280;46181;51.498;5.392;2023-01-28T04:00:36;102859.3;;;7.89;52.25977
59987;BME280;46181;51.498;5.392;2023-01-28T04:05:06;102867.7;;;7.88;52.31445
59987;BME280;46181;51.498;5.392;2023-01-28T04:09:36;102869.2;;;7.86;52.11035
59987;BME280;46181;51.498;5.392;2023-01-28T04:14:06;102875.9;;;7.8;52.04785
59987;BME280;46181;51.498;5.392;2023-01-28T04:18:36;102873.7;;;7.74;52.01758
59987;BME280;46181;51.498;5.392;2023-01-28T04:23:06;102878.4;;;7.68;52.38965
59987;BME280;46181;51.498;5.392;2023-01-28T04:27:36;102872.2;;;7.66;52.72461
59987;BME280;46181;51.498;5.392;2023-01-28T04:32:06;102877.1;;;7.68;52.89551
59987;BME280;46181;51.498;5.392;2023-01-28T04:36:36;102874.8;;;7.66;52.95898
59987;BME280;46181;51.498;5.392;2023-01-28T04:41:06;102871.8;;;7.61;53.14258
59987;BME280;46181;51.498;5.392;2023-01-28T04:45:36;102868.4;;;7.63;53.23535
59987;BME280;46181;51.498;5.392;2023-01-28T04:50:06;102870.3;;;7.63;53.29199
59987;BME280;46181;51.498;5.392;2023-01-28T04:54:36;102873.6;;;7.61;53.3457
59987;BME280;46181;51.498;5.392;2023-01-28T04:59:06;102869.7;;;7.58;53.4209
59987;BME280;46181;51.498;5.392;2023-01-28T05:03:36;102872.9;;;7.55;53.61914
59987;BME280;46181;51.498;5.392;2023-01-28T05:08:07;102878.2;;;7.52;53.7041
59987;BME280;46181;51.498;5.392;2023-01-28T05:12:36;102878.4;;;7.51;53.71387
59987;BME280;46181;51.498;5.392;2023-01-28T05:17:06;102876.3;;;7.5;53.81348
59987;BME280;46181;51.498;5.392;2023-01-28T05:21:36;102884.9;;;7.51;53.84766
59987;BME280;46181;51.498;5.392;2023-01-28T05:26:06;102889.3;;;7.51;53.9043
59987;BME280;46181;51.498;5.392;2023-01-28T05:30:36;102880.5;;;7.48;53.76563
59987;BME280;46181;51.498;5.392;2023-01-28T05:35:06;102873.8;;;7.46;53.85352
59987;BME280;46181;51.498;5.392;2023-01-28T05:39:36;102870.5;;;7.45;53.85156
59987;BME280;46181;51.498;5.392;2023-01-28T05:44:06;102871.9;;;7.49;54.01367
59987;BME280;46181;51.498;5.392;2023-01-28T05:48:36;102872.8;;;7.51;53.92676
59987;BME280;46181;51.498;5.392;2023-01-28T05:53:07;102867.4;;;7.51;54.06055
59987;BME280;46181;51.498;5.392;2023-01-28T05:57:36;102878.2;;;7.52;54.03906
59987;BME280;46181;51.498;5.392;2023-01-28T06:02:06;102884.2;;;7.5;53.72363
59987;BME280;46181;51.498;5.392;2023-01-28T06:06:36;102887.1;;;7.45;53.81836
59987;BME280;46181;51.498;5.392;2023-01-28T06:11:06;102886.9;;;7.46;53.5625
59987;BME280;46181;51.498;5.392;2023-01-28T06:15:36;102888.3;;;7.44;53.17871
59987;BME280;46181;51.498;5.392;2023-01-28T06:20:07;102891.7;;;7.38;52.46582
59987;BME280;46181;51.498;5.392;2023-01-28T06:24:36;102894.3;;;7.34;52.41699
59987;BME280;46181;51.498;5.392;2023-01-28T06:29:06;102892.8;;;7.3;52.30078
59987;BME280;46181;51.498;5.392;2023-01-28T06:33:36;102894.4;;;7.3;52.16602
59987;BME280;46181;51.498;5.392;2023-01-28T06:38:06;102897.1;;;7.32;51.65332
59987;BME280;46181;51.498;5.392;2023-01-28T06:42:36;102896.9;;;7.33;51.51953
59987;BME280;46181;51.498;5.392;2023-01-28T06:47:06;102901.1;;;7.34;51.64453
59987;BME280;46181;51.498;5.392;2023-01-28T06:51:36;102905.9;;;7.34;51.34277
59987;BME280;46181;51.498;5.392;2023-01-28T06:56:06;102905.3;;;7.35;51.08496
59987;BME280;46181;51.498;5.392;2023-01-28T07:00:36;102908.5;;;7.29;50.88965
59987;BME280;46181;51.498;5.392;2023-01-28T07:05:06;102903.1;;;7.29;51.05762
59987;BME280;46181;51.498;5.392;2023-01-28T07:09:36;102910.1;;;7.3;50.96875
59987;BME280;46181;51.498;5.392;2023-01-28T07:14:06;102916.3;;;7.33;50.88086
59987;BME280;46181;51.498;5.392;2023-01-28T07:18:36;102917.5;;;7.31;50.9248
59987;BME280;46181;51.498;5.392;2023-01-28T07:23:06;102922.3;;;7.32;50.81445
59987;BME280;46181;51.498;5.392;2023-01-28T07:27:36;102934;;;7.31;50.57715
59987;BME280;46181;51.498;5.392;2023-01-28T07:32:06;102933.3;;;7.23;50.24512
59987;BME280;46181;51.498;5.392;2023-01-28T07:36:36;102937.8;;;7.22;50.52148
59987;BME280;46181;51.498;5.392;2023-01-28T07:41:06;102943.9;;;7.24;50.40137
59987;BME280;46181;51.498;5.392;2023-01-28T07:45:36;102942.1;;;7.17;49.88965
59987;BME280;46181;51.498;5.392;2023-01-28T07:50:07;102944.8;;;7.16;50.15723
59987;BME280;46181;51.498;5.392;2023-01-28T07:54:36;102951.8;;;7.2;50.03809
59987;BME280;46181;51.498;5.392;2023-01-28T07:59:06;102959.7;;;7.2;50.15039
59987;BME280;46181;51.498;5.392;2023-01-28T08:03:36;102965.9;;;7.19;49.75684
59987;BME280;46181;51.498;5.392;2023-01-28T08:08:06;102959.2;;;7.18;49.58789
59987;BME280;46181;51.498;5.392;2023-01-28T08:12:36;102956.1;;;7.21;49.84961
59987;BME280;46181;51.498;5.392;2023-01-28T08:17:06;102969.7;;;7.22;49.75977
59987;BME280;46181;51.498;5.392;2023-01-28T08:21:36;102981.9;;;7.2;49.75879
59987;BME280;46181;51.498;5.392;2023-01-28T08:26:06;102993.1;;;7.24;49.46094
59987;BME280;46181;51.498;5.392;2023-01-28T08:30:36;102991.2;;;7.28;49.48828
59987;BME280;46181;51.498;5.392;2023-01-28T08:35:08;102987.5;;;7.34;49.38281
59987;BME280;46181;51.498;5.392;2023-01-28T08:39:36;102990.4;;;7.4;49.37891
59987;BME280;46181;51.498;5.392;2023-01-28T08:44:14;103002;;;7.43;49.47168
59987;BME280;46181;51.498;5.392;2023-01-28T08:48:36;103005.2;;;7.6;49.31152
59987;BME280;46181;51.498;5.392;2023-01-28T08:53:11;102999.1;;;7.68;49.39844
59987;BME280;46181;51.498;5.392;2023-01-28T08:57:36;103003;;;7.69;49.03027
59987;BME280;46181;51.498;5.392;2023-01-28T09:02:07;103012.6;;;7.7;49.15527
59987;BME280;46181;51.498;5.392;2023-01-28T09:06:36;103020.7;;;7.74;49.14746
59987;BME280;46181;51.498;5.392;2023-01-28T09:11:07;103011;;;7.74;49.00293
59987;BME280;46181;51.498;5.392;2023-01-28T09:15:36;103021.2;;;7.81;48.86426
59987;BME280;46181;51.498;5.392;2023-01-28T09:20:07;103018.4;;;7.78;48.86133
59987;BME280;46181;51.498;5.392;2023-01-28T09:24:36;103031.7;;;7.78;48.79395
59987;BME280;46181;51.498;5.392;2023-01-28T09:29:06;103026.1;;;7.77;48.93945
59987;BME280;46181;51.498;5.392;2023-01-28T09:33:37;103031.4;;;7.67;48.80371
59987;BME280;46181;51.498;5.392;2023-01-28T09:38:08;103040.6;;;7.63;48.2832
59987;BME280;46181;51.498;5.392;2023-01-28T09:47:11;103053;;;7.6;48.51563
59987;BME280;46181;51.498;5.392;2023-01-28T09:51:43;103045.8;;;7.59;48.54785
59987;BME280;46181;51.498;5.392;2023-01-28T09:56:10;103042.7;;;7.56;48.37695
59987;BME280;46181;51.498;5.392;2023-01-28T10:00:40;103055.8;;;7.52;48.49512
59987;BME280;46181;51.498;5.392;2023-01-28T10:05:19;103053.6;;;7.49;48.57129
59987;BME280;46181;51.498;5.392;2023-01-28T10:09:43;103068.1;;;7.54;48.40918
59987;BME280;46181;51.498;5.392;2023-01-28T10:14:11;103061.9;;;7.52;48.03613
59987;BME280;46181;51.498;5.392;2023-01-28T10:18:43;103070.8;;;7.48;48.17773
59987;BME280;46181;51.498;5.392;2023-01-28T10:23:10;103073.9;;;7.48;48.09961
59987;BME280;46181;51.498;5.392;2023-01-28T10:27:37;103080.9;;;7.5;48.24707
59987;BME280;46181;51.498;5.392;2023-01-28T10:32:12;103080.1;;;7.56;48.19824
59987;BME280;46181;51.498;5.392;2023-01-28T10:36:37;103069.1;;;7.54;47.62402
59987;BME280;46181;51.498;5.392;2023-01-28T10:41:09;103066.6;;;7.47;47.73926
59987;BME280;46181;51.498;5.392;2023-01-28T10:45:39;103063.3;;;7.49;47.79785
59987;BME280;46181;51.498;5.392;2023-01-28T10:50:09;103064;;;7.58;48.04199
59987;BME280;46181;51.498;5.392;2023-01-28T10:54:36;103062.2;;;7.61;47.94434
59987;BME280;46181;51.498;5.392;2023-01-28T10:59:19;103059.3;;;7.61;47.62012
59987;BME280;46181;51.498;5.392;2023-01-28T11:03:36;103060.4;;;7.66;47.66992
59987;BME280;46181;51.498;5.392;2023-01-28T11:08:23;103067;;;7.5;47.52832
59987;BME280;46181;51.498;5.392;2023-01-28T11:12:37;103059.7;;;7.52;47.69922
59987;BME280;46181;51.498;5.392;2023-01-28T11:17:11;103062.8;;;7.61;47.74316
59987;BME280;46181;51.498;5.392;2023-01-28T11:21:37;103051.5;;;7.64;48.0498
59987;BME280;46181;51.498;5.392;2023-01-28T11:26:17;103048.3;;;7.69;47.97656
59987;BME280;46181;51.498;5.392;2023-01-28T11:30:37;103041.9;;;7.77;47.80664
59987;BME280;46181;51.498;5.392;2023-01-28T11:35:07;103024.2;;;7.79;47.82031
59987;BME280;46181;51.498;5.392;2023-01-28T11:39:36;103022.3;;;7.97;48.04102
59987;BME280;46181;51.498;5.392;2023-01-28T11:44:10;103013.8;;;8.16;47.89453
59987;BME280;46181;51.498;5.392;2023-01-28T11:48:41;103014.8;;;8.35;47.47656
59987;BME280;46181;51.498;5.392;2023-01-28T11:57:41;102986.3;;;8.31;47.61816
59987;BME280;46181;51.498;5.392;2023-01-28T12:02:19;102962.9;;;8.42;47.88867
59987;BME280;46181;51.498;5.392;2023-01-28T12:07:04;102943.8;;;8.62;47.92285
59987;BME280;46181;51.498;5.392;2023-01-28T12:11:21;102922.7;;;8.7;47.63867
59987;BME280;46181;51.498;5.392;2023-01-28T12:20:16;102926.7;;;8.39;47.41406
59987;BME280;46181;51.498;5.392;2023-01-28T12:24:46;102921.7;;;8.33;47.61035
59987;BME280;46181;51.498;5.392;2023-01-28T12:29:19;102929.7;;;8.34;47.7002
59987;BME280;46181;51.498;5.392;2023-01-28T12:33:47;102938.8;;;8.32;47.6084
59987;BME280;46181;51.498;5.392;2023-01-28T12:38:15;102943.5;;;8.3;47.86328
59987;BME280;46181;51.498;5.392;2023-01-28T12:42:41;102968.3;;;8.42;47.79883
59987;BME280;46181;51.498;5.392;2023-01-28T12:47:09;102961.2;;;8.42;46.84375
59987;BME280;46181;51.498;5.392;2023-01-28T12:51:40;102972.3;;;8.15;46.8252
59987;BME280;46181;51.498;5.392;2023-01-28T12:56:10;102979.3;;;7.93;47.40723
59987;BME280;46181;51.498;5.392;2023-01-28T13:00:39;102975;;;8.02;47.92285
59987;BME280;46181;51.498;5.392;2023-01-28T13:05:11;102982.5;;;8.16;47.92871
59987;BME280;46181;51.498;5.392;2023-01-28T13:09:38;102967.2;;;8.53;47.82227
59987;BME280;46181;51.498;5.392;2023-01-28T13:14:07;102976;;;8.8;47.52637
59987;BME280;46181;51.498;5.392;2023-01-28T13:18:50;102977;;;9;47.40137
59987;BME280;46181;51.498;5.392;2023-01-28T13:23:24;102973.1;;;9.19;47.05176
59987;BME280;46181;51.498;5.392;2023-01-28T13:27:36;102965;;;9.23;46.2334
59987;BME280;46181;51.498;5.392;2023-01-28T13:36:43;102951;;;8.82;45.7959
59987;BME280;46181;51.498;5.392;2023-01-28T13:41:07;102946.5;;;8.6;46.3125
59987;BME280;46181;51.498;5.392;2023-01-28T13:45:37;102950.5;;;8.56;46.78027
59987;BME280;46181;51.498;5.392;2023-01-28T13:50:11;102940;;;8.65;46.8916
59987;BME280;46181;51.498;5.392;2023-01-28T13:54:38;102919.8;;;8.67;46.66797
59987;BME280;46181;51.498;5.392;2023-01-28T13:59:26;102911;;;8.68;47.11914
59987;BME280;46181;51.498;5.392;2023-01-28T14:03:54;102901.6;;;8.69;46.97461
59987;BME280;46181;51.498;5.392;2023-01-28T14:08:25;102893.4;;;8.7;46.96387
59987;BME280;46181;51.498;5.392;2023-01-28T14:17:11;102893.2;;;8.39;47.00879
59987;BME280;46181;51.498;5.392;2023-01-28T14:21:39;102903.9;;;8.18;47.18945
59987;BME280;46181;51.498;5.392;2023-01-28T14:26:15;102905.9;;;8.03;47.39648
59987;BME280;46181;51.498;5.392;2023-01-28T14:30:40;102920.5;;;7.96;47.56836
59987;BME280;46181;51.498;5.392;2023-01-28T14:35:08;102935.4;;;7.96;47.6582
59987;BME280;46181;51.498;5.392;2023-01-28T14:39:40;102924.5;;;8.05;47.20898
59987;BME280;46181;51.498;5.392;2023-01-28T14:44:06;102917.4;;;8.1;47.71777
59987;BME280;46181;51.498;5.392;2023-01-28T14:48:41;102938.8;;;8.28;48.08691
59987;BME280;46181;51.498;5.392;2023-01-28T14:57:47;102942.3;;;8.51;47.47168
59987;BME280;46181;51.498;5.392;2023-01-28T15:02:16;102934.9;;;8.49;47.43555
59987;BME280;46181;51.498;5.392;2023-01-28T15:06:39;102938.8;;;8.47;47.7041
59987;BME280;46181;51.498;5.392;2023-01-28T15:11:08;102927.4;;;8.38;47.6377
59987;BME280;46181;51.498;5.392;2023-01-28T15:15:39;102938.4;;;8.17;47.7041
59987;BME280;46181;51.498;5.392;2023-01-28T15:20:07;102925.6;;;8.06;48.00586
59987;BME280;46181;51.498;5.392;2023-01-28T15:24:36;102930.3;;;8.02;48.31641
59987;BME280;46181;51.498;5.392;2023-01-28T15:33:36;102929.3;;;7.89;48.74902
59987;BME280;46181;51.498;5.392;2023-01-28T15:38:07;102951.2;;;7.8;48.85156
59987;BME280;46181;51.498;5.392;2023-01-28T15:42:36;102960.7;;;7.66;48.92676
59987;BME280;46181;51.498;5.392;2023-01-28T15:47:12;102964.5;;;7.49;49.04199
59987;BME280;46181;51.498;5.392;2023-01-28T15:51:37;102980.4;;;7.36;49.30762
59987;BME280;46181;51.498;5.392;2023-01-28T15:56:12;102991.9;;;7.22;49.57031
59987;BME280;46181;51.498;5.392;2023-01-28T16:00:36;102998.6;;;7.14;49.86426
59987;BME280;46181;51.498;5.392;2023-01-28T16:09:38;103013.2;;;6.89;50.37207
59987;BME280;46181;51.498;5.392;2023-01-28T16:14:15;102999.3;;;6.79;50.66211
59987;BME280;46181;51.498;5.392;2023-01-28T16:18:47;103000.2;;;6.58;50.97363
59987;BME280;46181;51.498;5.392;2023-01-28T16:23:12;102987.4;;;6.53;51.0332
59987;BME280;46181;51.498;5.392;2023-01-28T16:27:37;102978.9;;;6.39;51.19629
59987;BME280;46181;51.498;5.392;2023-01-28T16:36:36;102967.4;;;6.14;51.62305
59987;BME280;46181;51.498;5.392;2023-01-28T16:41:08;102986.2;;;6.05;51.89258
59987;BME280;46181;51.498;5.392;2023-01-28T16:45:36;102994.9;;;6;52.15527
59987;BME280;46181;51.498;5.392;2023-01-28T16:50:07;102995.8;;;6.01;52.11035
59987;BME280;46181;51.498;5.392;2023-01-28T16:54:36;102984.8;;;5.94;52.24805
59987;BME280;46181;51.498;5.392;2023-01-28T16:59:07;103000.9;;;5.95;52.32715
59987;BME280;46181;51.498;5.392;2023-01-28T17:03:36;102983;;;5.89;52.33008
59987;BME280;46181;51.498;5.392;2023-01-28T17:08:06;102982.8;;;5.75;52.50293
59987;BME280;46181;51.498;5.392;2023-01-28T17:12:36;103002.3;;;5.64;52.69043
59987;BME280;46181;51.498;5.392;2023-01-28T17:17:06;102990.7;;;5.54;52.90234
59987;BME280;46181;51.498;5.392;2023-01-28T17:21:36;102984.5;;;5.45;53.0127
59987;BME280;46181;51.498;5.392;2023-01-28T17:26:11;102985.5;;;5.34;53.15527
59987;BME280;46181;51.498;5.392;2023-01-28T17:30:36;103012.8;;;5.29;53.2041
59987;BME280;46181;51.498;5.392;2023-01-28T17:35:07;103013.7;;;5.26;53.41309
59987;BME280;46181;51.498;5.392;2023-01-28T17:39:36;103003.6;;;5.22;53.50684
59987;BME280;46181;51.498;5.392;2023-01-28T17:44:09;103008.4;;;5.13;53.61914
59987;BME280;46181;51.498;5.392;2023-01-28T17:48:36;102995;;;5.07;53.68945
59987;BME280;46181;51.498;5.392;2023-01-28T17:53:08;102999.5;;;4.99;53.79004
59987;BME280;46181;51.498;5.392;2023-01-28T17:57:36;102995;;;4.94;53.85059
59987;BME280;46181;51.498;5.392;2023-01-28T18:02:07;103005.6;;;4.84;54.03906
59987;BME280;46181;51.498;5.392;2023-01-28T18:06:37;103012.6;;;4.76;54.15137
59987;BME280;46181;51.498;5.392;2023-01-28T18:11:09;103020.9;;;4.73;54.32422
59987;BME280;46181;51.498;5.392;2023-01-28T18:15:36;103017;;;4.7;54.41016
59987;BME280;46181;51.498;5.392;2023-01-28T18:20:07;103021.7;;;4.66;54.4375
59987;BME280;46181;51.498;5.392;2023-01-28T18:24:37;103031.4;;;4.61;54.6084
59987;BME280;46181;51.498;5.392;2023-01-28T18:29:06;103039.8;;;4.58;54.63867
59987;BME280;46181;51.498;5.392;2023-01-28T18:33:36;103044.4;;;4.53;54.74512
59987;BME280;46181;51.498;5.392;2023-01-28T18:38:06;103044.5;;;4.53;54.83301
59987;BME280;46181;51.498;5.392;2023-01-28T18:42:36;103037.9;;;4.49;54.86133
59987;BME280;46181;51.498;5.392;2023-01-28T18:47:06;103037.3;;;4.43;54.95313
59987;BME280;46181;51.498;5.392;2023-01-28T18:51:36;103037.8;;;4.41;54.99609
59987;BME280;46181;51.498;5.392;2023-01-28T18:56:08;103045.3;;;4.35;55.09766
59987;BME280;46181;51.498;5.392;2023-01-28T19:00:36;103046.5;;;4.33;55.17383
59987;BME280;46181;51.498;5.392;2023-01-28T19:05:07;103040.1;;;4.28;55.26855
59987;BME280;46181;51.498;5.392;2023-01-28T19:09:36;103034.9;;;4.23;55.30566
59987;BME280;46181;51.498;5.392;2023-01-28T19:14:07;103025.7;;;4.17;55.3418
59987;BME280;46181;51.498;5.392;2023-01-28T19:18:37;103029.6;;;4.12;55.44727
59987;BME280;46181;51.498;5.392;2023-01-28T19:23:06;103034;;;4.07;55.4834
59987;BME280;46181;51.498;5.392;2023-01-28T19:27:36;103037.8;;;4.04;55.56836
59987;BME280;46181;51.498;5.392;2023-01-28T19:32:07;103043.9;;;4;55.6748
59987;BME280;46181;51.498;5.392;2023-01-28T19:36:38;103052.7;;;3.95;55.75781
59987;BME280;46181;51.498;5.392;2023-01-28T19:41:10;103048.6;;;3.88;55.74902
59987;BME280;46181;51.498;5.392;2023-01-28T19:45:36;103061;;;3.85;55.71191
59987;BME280;46181;51.498;5.392;2023-01-28T19:50:07;103057.6;;;3.84;55.91016
59987;BME280;46181;51.498;5.392;2023-01-28T19:54:36;103054.8;;;3.85;56.05469
59987;BME280;46181;51.498;5.392;2023-01-28T19:59:06;103056.8;;;3.95;56.13477
59987;BME280;46181;51.498;5.392;2023-01-28T20:03:36;103065.9;;;4.04;56.20117
59987;BME280;46181;51.498;5.392;2023-01-28T20:08:06;103063.3;;;4.18;56.18652
59987;BME280;46181;51.498;5.392;2023-01-28T20:12:36;103060.8;;;4.3;56.10352
59987;BME280;46181;51.498;5.392;2023-01-28T20:17:06;103055.8;;;4.39;55.9248
59987;BME280;46181;51.498;5.392;2023-01-28T20:21:37;103053.4;;;4.42;55.94043
59987;BME280;46181;51.498;5.392;2023-01-28T20:26:07;103048.5;;;4.51;55.93066
59987;BME280;46181;51.498;5.392;2023-01-28T20:30:37;103053.5;;;4.49;55.86133
59987;BME280;46181;51.498;5.392;2023-01-28T20:35:07;103049.4;;;4.49;55.91699
59987;BME280;46181;51.498;5.392;2023-01-28T20:39:36;103043;;;4.49;55.93945
59987;BME280;46181;51.498;5.392;2023-01-28T20:44:06;103052.8;;;4.45;55.98926
59987;BME280;46181;51.498;5.392;2023-01-28T20:48:37;103054.5;;;4.41;56.07324
59987;BME280;46181;51.498;5.392;2023-01-28T20:53:06;103038.2;;;4.33;56.04004
59987;BME280;46181;51.498;5.392;2023-01-28T20:57:36;103026.2;;;4.25;56.18652
59987;BME280;46181;51.498;5.392;2023-01-28T21:02:07;103021.1;;;4.21;56.23535
59987;BME280;46181;51.498;5.392;2023-01-28T21:06:36;103022.5;;;4.15;56.24805
59987;BME280;46181;51.498;5.392;2023-01-28T21:11:09;103025.4;;;4.07;56.33789
59987;BME280;46181;51.498;5.392;2023-01-28T21:15:36;103020.6;;;4.01;56.38574
59987;BME280;46181;51.498;5.392;2023-01-28T21:20:08;103012.6;;;3.96;56.44629
59987;BME280;46181;51.498;5.392;2023-01-28T21:24:37;103017.4;;;3.92;56.57422
59987;BME280;46181;51.498;5.392;2023-01-28T21:29:06;103023.4;;;3.88;56.64648
59987;BME280;46181;51.498;5.392;2023-01-28T21:33:36;103015.6;;;3.84;56.73047
59987;BME280;46181;51.498;5.392;2023-01-28T21:38:07;103008.5;;;3.81;56.7373
59987;BME280;46181;51.498;5.392;2023-01-28T21:42:36;103010.7;;;3.76;56.78516
59987;BME280;46181;51.498;5.392;2023-01-28T21:47:06;103016.4;;;3.72;56.8584
59987;BME280;46181;51.498;5.392;2023-01-28T21:51:37;103018.1;;;3.71;56.95703
59987;BME280;46181;51.498;5.392;2023-01-28T21:56:07;103015.2;;;3.73;57.10449
59987;BME280;46181;51.498;5.392;2023-01-28T22:00:36;103021.2;;;3.83;57.19434
59987;BME280;46181;51.498;5.392;2023-01-28T22:05:07;103022.8;;;3.92;57.0293
59987;BME280;46181;51.498;5.392;2023-01-28T22:09:37;103032.1;;;3.96;56.95605
59987;BME280;46181;51.498;5.392;2023-01-28T22:14:06;103029.4;;;3.99;56.94922
59987;BME280;46181;51.498;5.392;2023-01-28T22:18:36;103028.1;;;3.98;56.89258
59987;BME280;46181;51.498;5.392;2023-01-28T22:23:06;103030.1;;;3.97;56.90234
59987;BME280;46181;51.498;5.392;2023-01-28T22:27:36;103015.9;;;3.94;56.84375
59987;BME280;46181;51.498;5.392;2023-01-28T22:32:07;103017.3;;;3.89;56.88086
59987;BME280;46181;51.498;5.392;2023-01-28T22:36:36;103015.3;;;3.85;56.93066
59987;BME280;46181;51.498;5.392;2023-01-28T22:41:11;103015.2;;;3.74;57.10449
59987;BME280;46181;51.498;5.392;2023-01-28T22:45:36;103010.8;;;3.73;57.00488
59987;BME280;46181;51.498;5.392;2023-01-28T22:50:07;102999.6;;;3.64;57.09277
59987;BME280;46181;51.498;5.392;2023-01-28T22:54:37;103008.6;;;3.58;57.09473
59987;BME280;46181;51.498;5.392;2023-01-28T22:59:08;103012.4;;;3.56;57.26953
59987;BME280;46181;51.498;5.392;2023-01-28T23:03:36;103009.9;;;3.53;57.28613
59987;BME280;46181;51.498;5.392;2023-01-28T23:08:07;102998.8;;;3.51;57.33984
59987;BME280;46181;51.498;5.392;2023-01-28T23:12:37;102986.6;;;3.47;57.40039
59987;BME280;46181;51.498;5.392;2023-01-28T23:17:07;102979.2;;;3.46;57.43262
59987;BME280;46181;51.498;5.392;2023-01-28T23:21:36;102972.8;;;3.41;57.37109
59987;BME280;46181;51.498;5.392;2023-01-28T23:26:07;102970;;;3.36;57.29785
59987;BME280;46181;51.498;5.392;2023-01-28T23:30:36;102976.4;;;3.32;57.46973
59987;BME280;46181;51.498;5.392;2023-01-28T23:35:07;102979.5;;;3.31;57.57813
59987;BME280;46181;51.498;5.392;2023-01-28T23:39:36;102973.1;;;3.3;57.59863
59987;BME280;46181;51.498;5.392;2023-01-28T23:44:07;102973.9;;;3.27;57.69434
59987;BME280;46181;51.498;5.392;2023-01-28T23:48:36;102974.5;;;3.24;57.69043
59987;BME280;46181;51.498;5.392;2023-01-28T23:53:06;102967.4;;;3.23;57.76758
59987;BME280;46181;51.498;5.392;2023-01-28T23:57:38;102973.8;;;3.25;57.84766
